CCGS Cape Naden — CFN5482 — position and weather

sailwx.info

Track history (hours):
 
Tides and Currents Weather Stations Pressure Air Temp Water Temp Dewpoint Dewpoint Depression Visibility Wind Speed Wind Dir Waves Ship Positions

CCGS Cape Naden

Last reported at 2018-Aug-15 21:32 UTC. Time now 2018-Aug-16 20:17 UTC.
Position N 48°51' W 123°28'.

Length 15 m; draft 0.8 m.

Type: SAR. MMSI: 316017162.

Date/timePositionNaut miles runAvg speedWind from/ knotsBaromVisibWave heightAir tempDewpointWater temp
2018-Aug-15 21:32N 48°51' W 123°28'115.1
2018-Aug-15 21:28N 48°50' W 123°27'1021.3
2018-Aug-15 21:00N 48°44' W 123°15'3 5.6
2018-Aug-15 20:30N 48°42' W 123°18'5 9.7
2018-Aug-15 20:00N 48°39' W 123°24'0 0.0
2018-Aug-15 19:30N 48°39' W 123°24'0 0.0
2018-Aug-15 19:00N 48°39' W 123°24'1 1.8
2018-Aug-15 18:30N 48°38' W 123°23'2 4.2
2018-Aug-15 18:01N 48°40' W 123°24'5 9.0
2018-Aug-15 17:30N 48°45' W 123°23'  
2018-Aug-10 21:06N 48°51' W 123°29'213.8
2018-Aug-10 20:57N 48°50' W 123°27'714.8
2018-Aug-10 20:30N 48°43' W 123°24'0 0.7
2018-Aug-10 20:00N 48°43' W 123°24'0 0.4
2018-Aug-10 19:31N 48°43' W 123°24'2 3.9
2018-Aug-10 19:01N 48°45' W 123°23'7 0.3
2018-Aug-09 20:31N 48°51' W 123°28'021.6
2018-Aug-09 20:30N 48°50' W 123°28'715.3
2018-Aug-09 20:01N 48°43' W 123°27'4 7.5
2018-Aug-09 19:30N 48°39' W 123°27'0 0.0
2018-Aug-09 19:00N 48°39' W 123°27'0 0.0
2018-Aug-09 18:30N 48°39' W 123°27'0 0.0
2018-Aug-09 18:00N 48°39' W 123°27'0 0.0
2018-Aug-09 17:29N 48°39' W 123°27'0 0.0
2018-Aug-09 17:00N 48°39' W 123°27'0 0.0
2018-Aug-09 16:30N 48°39' W 123°27'815.8
2018-Aug-09 16:00N 48°46' W 123°22'7 0.4
2018-Aug-08 22:29N 48°51' W 123°29'7 4.5
2018-Aug-08 20:52N 48°58' W 123°34'821.5
2018-Aug-08 20:28N 48°51' W 123°25'3 0.1
2018-Aug-06 23:28N 48°51' W 123°30'0 0.0
2018-Aug-06 18:43N 48°51' W 123°30'0 0.0
2018-Aug-06 07:52N 48°51' W 123°30'2 2.7
2018-Aug-06 06:58N 48°50' W 123°27'4 8.6
2018-Aug-06 06:29N 48°50' W 123°21'5 9.1
2018-Aug-06 05:59N 48°50' W 123°28'2 0.3
2018-Aug-05 23:12N 48°51' W 123°30'0 0.0
2018-Aug-05 21:52N 48°51' W 123°30'  
Track history (hours):
 
Tides and Currents Weather Stations Pressure Air Temp Water Temp Dewpoint Dewpoint Depression Visibility Wind Speed Wind Dir Waves Ship Positions

CCGS Cape Naden

Last reported at 2018-Aug-15 21:32 UTC. Time now 2018-Aug-16 20:17 UTC.
Position N 48°51' W 123°28'.

Length 15 m; draft 0.8 m.

Type: SAR. MMSI: 316017162.

Date/timePositionNaut miles runAvg speedWind from/ knotsBaromVisibWave heightAir tempDewpointWater temp
2018-Aug-15 21:32N 48°51' W 123°28'115.1
2018-Aug-15 21:28N 48°50' W 123°27'1021.3
2018-Aug-15 21:00N 48°44' W 123°15'3 5.6
2018-Aug-15 20:30N 48°42' W 123°18'5 9.7
2018-Aug-15 20:00N 48°39' W 123°24'0 0.0
2018-Aug-15 19:30N 48°39' W 123°24'0 0.0
2018-Aug-15 19:00N 48°39' W 123°24'1 1.8
2018-Aug-15 18:30N 48°38' W 123°23'2 4.2
2018-Aug-15 18:01N 48°40' W 123°24'5 9.0
2018-Aug-15 17:30N 48°45' W 123°23'  
2018-Aug-10 21:06N 48°51' W 123°29'213.8
2018-Aug-10 20:57N 48°50' W 123°27'714.8
2018-Aug-10 20:30N 48°43' W 123°24'0 0.7
2018-Aug-10 20:00N 48°43' W 123°24'0 0.4
2018-Aug-10 19:31N 48°43' W 123°24'2 3.9
2018-Aug-10 19:01N 48°45' W 123°23'7 0.3
2018-Aug-09 20:31N 48°51' W 123°28'021.6
2018-Aug-09 20:30N 48°50' W 123°28'715.3
2018-Aug-09 20:01N 48°43' W 123°27'4 7.5
2018-Aug-09 19:30N 48°39' W 123°27'0 0.0
2018-Aug-09 19:00N 48°39' W 123°27'0 0.0
2018-Aug-09 18:30N 48°39' W 123°27'0 0.0
2018-Aug-09 18:00N 48°39' W 123°27'0 0.0
2018-Aug-09 17:29N 48°39' W 123°27'0 0.0
2018-Aug-09 17:00N 48°39' W 123°27'0 0.0
2018-Aug-09 16:30N 48°39' W 123°27'815.8
2018-Aug-09 16:00N 48°46' W 123°22'7 0.4
2018-Aug-08 22:29N 48°51' W 123°29'7 4.5
2018-Aug-08 20:52N 48°58' W 123°34'821.5
2018-Aug-08 20:28N 48°51' W 123°25'3 0.1
2018-Aug-06 23:28N 48°51' W 123°30'0 0.0
2018-Aug-06 18:43N 48°51' W 123°30'0 0.0
2018-Aug-06 07:52N 48°51' W 123°30'2 2.7
2018-Aug-06 06:58N 48°50' W 123°27'4 8.6
2018-Aug-06 06:29N 48°50' W 123°21'5 9.1
2018-Aug-06 05:59N 48°50' W 123°28'2 0.3
2018-Aug-05 23:12N 48°51' W 123°30'0 0.0
2018-Aug-05 21:52N 48°51' W 123°30'  

Dump ship's entire track history